sensor_id;sensor_type;location;lat;lon;timestamp;pressure;altitude;pressure_sealevel;temperature;humidity
18918;BME280;9591;52.742;13.650;2023-06-26T00:00:15;101104.00;;;20.06;100.00
18918;BME280;9591;52.742;13.650;2023-06-26T00:03:03;101107.06;;;20.14;100.00
18918;BME280;9591;52.742;13.650;2023-06-26T00:05:51;101108.47;;;20.19;100.00
18918;BME280;9591;52.742;13.650;2023-06-26T00:08:38;101104.72;;;20.22;100.00
18918;BME280;9591;52.742;13.650;2023-06-26T00:11:25;101108.06;;;20.25;100.00
18918;BME280;9591;52.742;13.650;2023-06-26T00:14:13;101101.06;;;20.23;100.00
18918;BME280;9591;52.742;13.650;2023-06-26T00:17:00;101108.38;;;20.21;100.00
18918;BME280;9591;52.742;13.650;2023-06-26T00:19:46;101100.19;;;20.22;100.00
18918;BME280;9591;52.742;13.650;2023-06-26T00:22:35;101101.28;;;20.20;100.00
18918;BME280;9591;52.742;13.650;2023-06-26T00:25:22;101104.75;;;20.35;100.00
18918;BME280;9591;52.742;13.650;2023-06-26T00:28:09;101103.25;;;20.30;100.00
18918;BME280;9591;52.742;13.650;2023-06-26T00:30:56;101102.59;;;20.27;100.00
18918;BME280;9591;52.742;13.650;2023-06-26T00:33:43;101102.78;;;20.24;100.00
18918;BME280;9591;52.742;13.650;2023-06-26T00:36:29;101095.38;;;20.27;100.00
18918;BME280;9591;52.742;13.650;2023-06-26T00:39:18;101091.63;;;20.30;100.00
18918;BME280;9591;52.742;13.650;2023-06-26T00:42:05;101087.66;;;20.36;100.00
18918;BME280;9591;52.742;13.650;2023-06-26T00:44:53;101092.78;;;20.26;100.00
18918;BME280;9591;52.742;13.650;2023-06-26T00:47:40;101090.97;;;20.26;100.00
18918;BME280;9591;52.742;13.650;2023-06-26T00:50:27;101097.19;;;20.27;100.00
18918;BME280;9591;52.742;13.650;2023-06-26T00:53:15;101087.72;;;20.21;100.00
18918;BME280;9591;52.742;13.650;2023-06-26T00:56:03;101095.59;;;20.24;100.00
18918;BME280;9591;52.742;13.650;2023-06-26T00:58:53;101093.66;;;20.26;100.00
18918;BME280;9591;52.742;13.650;2023-06-26T01:01:40;101093.34;;;20.31;100.00
18918;BME280;9591;52.742;13.650;2023-06-26T01:04:28;101079.69;;;20.34;100.00
18918;BME280;9591;52.742;13.650;2023-06-26T01:07:19;101080.31;;;20.25;100.00
18918;BME280;9591;52.742;13.650;2023-06-26T01:10:07;101079.34;;;20.26;100.00
18918;BME280;9591;52.742;13.650;2023-06-26T01:12:57;101083.31;;;20.20;100.00
18918;BME280;9591;52.742;13.650;2023-06-26T01:15:43;101073.16;;;20.11;100.00
18918;BME280;9591;52.742;13.650;2023-06-26T01:18:32;101074.78;;;20.14;100.00
18918;BME280;9591;52.742;13.650;2023-06-26T01:21:19;101075.44;;;20.17;100.00
18918;BME280;9591;52.742;13.650;2023-06-26T01:24:12;101071.47;;;20.23;100.00
18918;BME280;9591;52.742;13.650;2023-06-26T01:27:09;101070.75;;;20.34;100.00
18918;BME280;9591;52.742;13.650;2023-06-26T01:29:56;101063.66;;;20.33;100.00
18918;BME280;9591;52.742;13.650;2023-06-26T01:32:44;101064.47;;;20.20;100.00
18918;BME280;9591;52.742;13.650;2023-06-26T01:35:32;101045.06;;;20.03;100.00
18918;BME280;9591;52.742;13.650;2023-06-26T01:38:22;101061.34;;;20.14;100.00
18918;BME280;9591;52.742;13.650;2023-06-26T01:41:10;101061.44;;;20.12;100.00
18918;BME280;9591;52.742;13.650;2023-06-26T01:44:11;101058.81;;;19.98;100.00
18918;BME280;9591;52.742;13.650;2023-06-26T01:47:02;101056.88;;;20.00;100.00
18918;BME280;9591;52.742;13.650;2023-06-26T01:49:55;101053.22;;;20.01;100.00
18918;BME280;9591;52.742;13.650;2023-06-26T01:52:51;101051.31;;;20.03;100.00
18918;BME280;9591;52.742;13.650;2023-06-26T01:55:42;101047.25;;;20.10;100.00
18918;BME280;9591;52.742;13.650;2023-06-26T01:58:35;101044.75;;;20.07;100.00
18918;BME280;9591;52.742;13.650;2023-06-26T02:01:25;101041.84;;;20.10;100.00
18918;BME280;9591;52.742;13.650;2023-06-26T02:04:11;101040.94;;;19.97;100.00
18918;BME280;9591;52.742;13.650;2023-06-26T02:06:58;101044.59;;;19.96;100.00
18918;BME280;9591;52.742;13.650;2023-06-26T02:09:48;101037.50;;;19.95;100.00
18918;BME280;9591;52.742;13.650;2023-06-26T02:12:36;101036.53;;;19.96;100.00
18918;BME280;9591;52.742;13.650;2023-06-26T02:15:23;101038.06;;;20.00;100.00
18918;BME280;9591;52.742;13.650;2023-06-26T02:18:13;101039.03;;;19.99;100.00
18918;BME280;9591;52.742;13.650;2023-06-26T02:20:59;101038.25;;;19.97;100.00
18918;BME280;9591;52.742;13.650;2023-06-26T02:23:47;101032.78;;;19.98;100.00
18918;BME280;9591;52.742;13.650;2023-06-26T02:26:33;101034.50;;;20.00;100.00
18918;BME280;9591;52.742;13.650;2023-06-26T02:29:20;101027.09;;;20.03;100.00
18918;BME280;9591;52.742;13.650;2023-06-26T02:32:07;101032.13;;;19.95;100.00
18918;BME280;9591;52.742;13.650;2023-06-26T02:34:55;101031.81;;;20.00;100.00
18918;BME280;9591;52.742;13.650;2023-06-26T02:37:42;101026.59;;;20.11;100.00
18918;BME280;9591;52.742;13.650;2023-06-26T02:40:29;101030.75;;;20.02;100.00
18918;BME280;9591;52.742;13.650;2023-06-26T02:43:16;101026.56;;;19.98;100.00
18918;BME280;9591;52.742;13.650;2023-06-26T02:46:03;101027.31;;;20.00;100.00
18918;BME280;9591;52.742;13.650;2023-06-26T02:48:50;101023.00;;;19.97;100.00
18918;BME280;9591;52.742;13.650;2023-06-26T02:51:39;101024.50;;;19.89;100.00
18918;BME280;9591;52.742;13.650;2023-06-26T02:54:35;101022.25;;;19.95;100.00
18918;BME280;9591;52.742;13.650;2023-06-26T02:57:22;101020.00;;;19.89;100.00
18918;BME280;9591;52.742;13.650;2023-06-26T03:00:10;101014.81;;;19.86;100.00
18918;BME280;9591;52.742;13.650;2023-06-26T03:03:03;101013.00;;;19.87;100.00
18918;BME280;9591;52.742;13.650;2023-06-26T03:05:50;101012.13;;;19.86;100.00
18918;BME280;9591;52.742;13.650;2023-06-26T03:08:40;101009.13;;;19.91;100.00
18918;BME280;9591;52.742;13.650;2023-06-26T03:11:27;101007.72;;;19.85;100.00
18918;BME280;9591;52.742;13.650;2023-06-26T03:14:13;101001.50;;;19.97;100.00
18918;BME280;9591;52.742;13.650;2023-06-26T03:17:00;100999.66;;;19.98;100.00
18918;BME280;9591;52.742;13.650;2023-06-26T03:19:51;100985.72;;;19.93;100.00
18918;BME280;9591;52.742;13.650;2023-06-26T03:22:40;100996.56;;;19.91;100.00
18918;BME280;9591;52.742;13.650;2023-06-26T03:25:29;100997.53;;;20.03;100.00
18918;BME280;9591;52.742;13.650;2023-06-26T03:28:36;100997.53;;;20.03;100.00
18918;BME280;9591;52.742;13.650;2023-06-26T03:31:23;100998.09;;;20.08;100.00
18918;BME280;9591;52.742;13.650;2023-06-26T03:34:11;100984.41;;;19.98;100.00
18918;BME280;9591;52.742;13.650;2023-06-26T03:36:57;100992.38;;;20.00;100.00
18918;BME280;9591;52.742;13.650;2023-06-26T03:39:44;100999.38;;;20.03;100.00
18918;BME280;9591;52.742;13.650;2023-06-26T03:42:32;100991.13;;;20.18;100.00
18918;BME280;9591;52.742;13.650;2023-06-26T03:45:19;100993.41;;;20.24;100.00
18918;BME280;9591;52.742;13.650;2023-06-26T03:48:07;100987.69;;;20.29;100.00
18918;BME280;9591;52.742;13.650;2023-06-26T03:50:54;100995.16;;;20.38;100.00
18918;BME280;9591;52.742;13.650;2023-06-26T03:53:41;100990.84;;;20.36;100.00
18918;BME280;9591;52.742;13.650;2023-06-26T03:56:28;100988.72;;;20.53;100.00
18918;BME280;9591;52.742;13.650;2023-06-26T03:59:16;100983.13;;;20.56;100.00
18918;BME280;9591;52.742;13.650;2023-06-26T04:02:03;100981.53;;;20.54;100.00
18918;BME280;9591;52.742;13.650;2023-06-26T04:04:50;100983.34;;;20.66;100.00
18918;BME280;9591;52.742;13.650;2023-06-26T04:07:39;100978.16;;;20.88;100.00
18918;BME280;9591;52.742;13.650;2023-06-26T04:10:26;100973.50;;;20.90;100.00
18918;BME280;9591;52.742;13.650;2023-06-26T04:13:13;100983.41;;;21.03;100.00
18918;BME280;9591;52.742;13.650;2023-06-26T04:16:02;100980.16;;;21.10;100.00
18918;BME280;9591;52.742;13.650;2023-06-26T04:18:49;100979.09;;;21.13;100.00
18918;BME280;9591;52.742;13.650;2023-06-26T04:21:36;100978.88;;;21.29;100.00
18918;BME280;9591;52.742;13.650;2023-06-26T04:24:23;100978.44;;;21.58;100.00
18918;BME280;9591;52.742;13.650;2023-06-26T04:27:09;100972.84;;;21.73;100.00
18918;BME280;9591;52.742;13.650;2023-06-26T04:29:56;100971.53;;;21.78;100.00
18918;BME280;9591;52.742;13.650;2023-06-26T04:32:44;100977.97;;;21.88;100.00
18918;BME280;9591;52.742;13.650;2023-06-26T04:35:31;100969.91;;;22.00;100.00
18918;BME280;9591;52.742;13.650;2023-06-26T04:38:22;100977.00;;;22.13;100.00
18918;BME280;9591;52.742;13.650;2023-06-26T04:41:09;100976.53;;;22.19;100.00
18918;BME280;9591;52.742;13.650;2023-06-26T04:43:55;100966.94;;;22.15;100.00
18918;BME280;9591;52.742;13.650;2023-06-26T04:46:42;100966.63;;;22.31;100.00
18918;BME280;9591;52.742;13.650;2023-06-26T04:49:31;100969.22;;;22.44;100.00
18918;BME280;9591;52.742;13.650;2023-06-26T04:52:18;100972.56;;;22.70;100.00
18918;BME280;9591;52.742;13.650;2023-06-26T04:55:05;100959.44;;;22.76;100.00
18918;BME280;9591;52.742;13.650;2023-06-26T04:57:52;100963.63;;;23.03;100.00
18918;BME280;9591;52.742;13.650;2023-06-26T05:00:39;100964.63;;;23.02;100.00
18918;BME280;9591;52.742;13.650;2023-06-26T05:03:27;100966.09;;;22.95;100.00
18918;BME280;9591;52.742;13.650;2023-06-26T05:06:15;100960.44;;;23.09;100.00
18918;BME280;9591;52.742;13.650;2023-06-26T05:09:02;100959.91;;;23.37;100.00
18918;BME280;9591;52.742;13.650;2023-06-26T05:11:49;100957.25;;;23.69;100.00
18918;BME280;9591;52.742;13.650;2023-06-26T05:14:36;100960.78;;;23.81;100.00
18918;BME280;9591;52.742;13.650;2023-06-26T05:17:22;100956.78;;;23.96;100.00
18918;BME280;9591;52.742;13.650;2023-06-26T05:20:10;100960.38;;;24.17;100.00
18918;BME280;9591;52.742;13.650;2023-06-26T05:22:58;100956.66;;;24.39;100.00
18918;BME280;9591;52.742;13.650;2023-06-26T05:25:45;100959.44;;;24.49;100.00
18918;BME280;9591;52.742;13.650;2023-06-26T05:28:32;100952.38;;;24.58;100.00
18918;BME280;9591;52.742;13.650;2023-06-26T05:31:21;100952.97;;;24.61;100.00
18918;BME280;9591;52.742;13.650;2023-06-26T05:34:10;100943.31;;;24.68;100.00
18918;BME280;9591;52.742;13.650;2023-06-26T05:36:59;100940.16;;;24.94;100.00
18918;BME280;9591;52.742;13.650;2023-06-26T05:39:48;100937.81;;;25.10;100.00
18918;BME280;9591;52.742;13.650;2023-06-26T05:42:35;100934.53;;;25.16;100.00
18918;BME280;9591;52.742;13.650;2023-06-26T05:45:22;100938.50;;;25.02;100.00
18918;BME280;9591;52.742;13.650;2023-06-26T05:48:09;100932.56;;;24.88;100.00
18918;BME280;9591;52.742;13.650;2023-06-26T05:50:56;100932.00;;;24.94;100.00
18918;BME280;9591;52.742;13.650;2023-06-26T05:53:43;100923.28;;;24.80;100.00
18918;BME280;9591;52.742;13.650;2023-06-26T05:56:32;100914.53;;;24.98;100.00
18918;BME280;9591;52.742;13.650;2023-06-26T05:59:19;100918.00;;;25.09;100.00
18918;BME280;9591;52.742;13.650;2023-06-26T06:02:06;100911.56;;;25.20;100.00
18918;BME280;9591;52.742;13.650;2023-06-26T06:04:53;100912.91;;;25.45;100.00
18918;BME280;9591;52.742;13.650;2023-06-26T06:07:40;100905.50;;;25.57;100.00
18918;BME280;9591;52.742;13.650;2023-06-26T06:10:27;100903.25;;;25.71;100.00
18918;BME280;9591;52.742;13.650;2023-06-26T06:13:15;100899.97;;;25.87;99.54
18918;BME280;9591;52.742;13.650;2023-06-26T06:16:02;100903.09;;;25.92;97.50
18918;BME280;9591;52.742;13.650;2023-06-26T06:18:49;100898.03;;;26.17;97.51
18918;BME280;9591;52.742;13.650;2023-06-26T06:21:36;100894.16;;;26.29;97.21
18918;BME280;9591;52.742;13.650;2023-06-26T06:24:22;100898.59;;;26.30;93.11
18918;BME280;9591;52.742;13.650;2023-06-26T06:27:09;100889.72;;;26.28;94.57
18918;BME280;9591;52.742;13.650;2023-06-26T06:29:58;100895.88;;;26.30;97.17
18918;BME280;9591;52.742;13.650;2023-06-26T06:32:44;100891.03;;;26.24;100.00
18918;BME280;9591;52.742;13.650;2023-06-26T06:35:35;100896.47;;;26.24;95.17
18918;BME280;9591;52.742;13.650;2023-06-26T06:38:22;100892.75;;;26.34;98.20
18918;BME280;9591;52.742;13.650;2023-06-26T06:41:09;100896.44;;;26.43;98.37
18918;BME280;9591;52.742;13.650;2023-06-26T06:43:56;100892.72;;;26.44;100.00
18918;BME280;9591;52.742;13.650;2023-06-26T06:46:44;100899.59;;;26.38;100.00
18918;BME280;9591;52.742;13.650;2023-06-26T06:49:30;100892.16;;;26.40;100.00
18918;BME280;9591;52.742;13.650;2023-06-26T06:52:17;100894.56;;;26.53;90.68
18918;BME280;9591;52.742;13.650;2023-06-26T06:55:05;100892.91;;;26.70;93.62
18918;BME280;9591;52.742;13.650;2023-06-26T06:57:54;100887.84;;;26.85;97.03
18918;BME280;9591;52.742;13.650;2023-06-26T07:00:40;100889.16;;;26.81;90.92
18918;BME280;9591;52.742;13.650;2023-06-26T07:03:28;100883.94;;;26.87;87.61
18918;BME280;9591;52.742;13.650;2023-06-26T07:06:16;100889.22;;;26.89;93.36
18918;BME280;9591;52.742;13.650;2023-06-26T07:09:03;100883.94;;;26.87;86.44
18918;BME280;9591;52.742;13.650;2023-06-26T07:11:51;100875.34;;;26.92;86.41
18918;BME280;9591;52.742;13.650;2023-06-26T07:14:39;100848.69;;;26.77;87.10
18918;BME280;9591;52.742;13.650;2023-06-26T07:17:25;100882.75;;;26.99;82.31
18918;BME280;9591;52.742;13.650;2023-06-26T07:20:14;100854.72;;;26.99;82.54
18918;BME280;9591;52.742;13.650;2023-06-26T07:23:01;100890.19;;;27.25;80.90
18918;BME280;9591;52.742;13.650;2023-06-26T07:25:48;100886.63;;;27.24;83.28
18918;BME280;9591;52.742;13.650;2023-06-26T07:28:35;100886.00;;;27.30;78.29
18918;BME280;9591;52.742;13.650;2023-06-26T07:31:21;100881.13;;;27.34;77.62
18918;BME280;9591;52.742;13.650;2023-06-26T07:34:08;100871.19;;;27.42;80.92
18918;BME280;9591;52.742;13.650;2023-06-26T07:36:56;100881.84;;;27.54;79.10
18918;BME280;9591;52.742;13.650;2023-06-26T07:39:43;100881.47;;;27.66;78.57
18918;BME280;9591;52.742;13.650;2023-06-26T07:42:30;100877.91;;;27.66;78.50
18918;BME280;9591;52.742;13.650;2023-06-26T07:45:17;100877.84;;;27.84;80.18
18918;BME280;9591;52.742;13.650;2023-06-26T07:48:05;100865.50;;;27.89;76.50
18918;BME280;9591;52.742;13.650;2023-06-26T07:50:52;100877.44;;;27.70;74.65
18918;BME280;9591;52.742;13.650;2023-06-26T07:53:42;100864.47;;;27.90;76.88
18918;BME280;9591;52.742;13.650;2023-06-26T07:56:29;100863.84;;;27.96;82.96
18918;BME280;9591;52.742;13.650;2023-06-26T07:59:15;100862.34;;;28.02;82.60
18918;BME280;9591;52.742;13.650;2023-06-26T08:02:03;100847.56;;;28.04;73.67
18918;BME280;9591;52.742;13.650;2023-06-26T08:04:50;100853.44;;;28.18;79.32
18918;BME280;9591;52.742;13.650;2023-06-26T08:07:37;100858.00;;;28.35;69.76
18918;BME280;9591;52.742;13.650;2023-06-26T08:10:25;100852.13;;;28.48;72.21
18918;BME280;9591;52.742;13.650;2023-06-26T08:13:12;100847.56;;;28.56;78.19
18918;BME280;9591;52.742;13.650;2023-06-26T08:15:58;100853.34;;;28.53;68.97
18918;BME280;9591;52.742;13.650;2023-06-26T08:18:45;100854.56;;;28.59;65.60
18918;BME280;9591;52.742;13.650;2023-06-26T08:21:32;100854.78;;;28.73;67.88
18918;BME280;9591;52.742;13.650;2023-06-26T08:24:19;100854.28;;;28.78;65.62
18918;BME280;9591;52.742;13.650;2023-06-26T08:27:07;100849.75;;;28.87;67.81
18918;BME280;9591;52.742;13.650;2023-06-26T08:29:54;100849.16;;;29.09;66.23
18918;BME280;9591;52.742;13.650;2023-06-26T08:32:40;100841.00;;;29.17;62.96
18918;BME280;9591;52.742;13.650;2023-06-26T08:35:27;100838.28;;;29.25;59.16
18918;BME280;9591;52.742;13.650;2023-06-26T08:38:14;100840.19;;;29.41;60.99
18918;BME280;9591;52.742;13.650;2023-06-26T08:41:06;100835.75;;;29.40;59.16
18918;BME280;9591;52.742;13.650;2023-06-26T08:43:56;100833.72;;;29.50;57.47
18918;BME280;9591;52.742;13.650;2023-06-26T08:46:43;100826.91;;;29.62;58.91
18918;BME280;9591;52.742;13.650;2023-06-26T08:49:36;100847.53;;;29.73;54.66
18918;BME280;9591;52.742;13.650;2023-06-26T08:52:25;100831.00;;;29.83;57.75
18918;BME280;9591;52.742;13.650;2023-06-26T08:55:16;100826.38;;;29.67;56.06
18918;BME280;9591;52.742;13.650;2023-06-26T08:58:05;100829.13;;;29.75;55.95
18918;BME280;9591;52.742;13.650;2023-06-26T09:00:53;100825.69;;;29.89;58.14
18918;BME280;9591;52.742;13.650;2023-06-26T09:03:41;100822.81;;;30.07;57.47
18918;BME280;9591;52.742;13.650;2023-06-26T09:06:28;100827.25;;;30.08;56.01
18918;BME280;9591;52.742;13.650;2023-06-26T09:09:15;100827.41;;;30.07;55.89
18918;BME280;9591;52.742;13.650;2023-06-26T09:12:02;100814.75;;;30.22;51.40
18918;BME280;9591;52.742;13.650;2023-06-26T09:14:50;100812.38;;;30.19;50.26
18918;BME280;9591;52.742;13.650;2023-06-26T09:17:40;100810.59;;;30.34;53.77
18918;BME280;9591;52.742;13.650;2023-06-26T09:20:27;100810.56;;;30.42;54.82
18918;BME280;9591;52.742;13.650;2023-06-26T09:23:14;100812.25;;;30.59;51.87
18918;BME280;9591;52.742;13.650;2023-06-26T09:26:02;100807.00;;;30.33;48.70
18918;BME280;9591;52.742;13.650;2023-06-26T09:28:49;100799.25;;;30.53;51.44
18918;BME280;9591;52.742;13.650;2023-06-26T09:31:40;100796.31;;;30.71;50.36
18918;BME280;9591;52.742;13.650;2023-06-26T09:34:32;100796.41;;;30.86;52.27
18918;BME280;9591;52.742;13.650;2023-06-26T09:37:18;100796.88;;;30.89;49.85
18918;BME280;9591;52.742;13.650;2023-06-26T09:40:06;100795.09;;;31.05;50.52
18918;BME280;9591;52.742;13.650;2023-06-26T09:43:02;100793.84;;;31.15;55.26
18918;BME280;9591;52.742;13.650;2023-06-26T09:45:49;100786.13;;;31.19;48.00
18918;BME280;9591;52.742;13.650;2023-06-26T09:48:36;100793.31;;;30.89;50.87
18918;BME280;9591;52.742;13.650;2023-06-26T09:51:24;100786.34;;;30.78;49.04
18918;BME280;9591;52.742;13.650;2023-06-26T09:54:11;100783.03;;;30.91;53.18
18918;BME280;9591;52.742;13.650;2023-06-26T09:57:06;100780.03;;;31.09;50.60
18918;BME280;9591;52.742;13.650;2023-06-26T09:59:53;100782.91;;;31.15;48.39
18918;BME280;9591;52.742;13.650;2023-06-26T10:02:40;100779.06;;;31.24;48.95
18918;BME280;9591;52.742;13.650;2023-06-26T10:05:27;100781.69;;;31.18;47.04
18918;BME280;9591;52.742;13.650;2023-06-26T10:08:15;100777.25;;;31.17;45.95
18918;BME280;9591;52.742;13.650;2023-06-26T10:11:03;100773.22;;;31.27;48.31
18918;BME280;9591;52.742;13.650;2023-06-26T10:13:51;100769.28;;;31.30;46.86
18918;BME280;9591;52.742;13.650;2023-06-26T10:17:01;100763.25;;;31.35;45.47
18918;BME280;9591;52.742;13.650;2023-06-26T10:19:50;100753.38;;;31.48;46.37
18918;BME280;9591;52.742;13.650;2023-06-26T10:22:43;100758.59;;;31.58;46.88
18918;BME280;9591;52.742;13.650;2023-06-26T10:25:32;100743.84;;;31.44;46.91
18918;BME280;9591;52.742;13.650;2023-06-26T10:28:19;100755.41;;;31.32;46.77
18918;BME280;9591;52.742;13.650;2023-06-26T10:31:09;100746.66;;;31.36;45.47
18918;BME280;9591;52.742;13.650;2023-06-26T10:33:57;100750.28;;;31.14;43.07
18918;BME280;9591;52.742;13.650;2023-06-26T10:36:44;100744.72;;;31.22;46.30
18918;BME280;9591;52.742;13.650;2023-06-26T10:39:46;100733.16;;;31.35;45.89
18918;BME280;9591;52.742;13.650;2023-06-26T10:42:37;100736.00;;;31.41;47.06
18918;BME280;9591;52.742;13.650;2023-06-26T10:45:28;100718.44;;;31.36;47.29
18918;BME280;9591;52.742;13.650;2023-06-26T10:48:15;100721.59;;;31.47;48.59
18918;BME280;9591;52.742;13.650;2023-06-26T10:51:13;100703.06;;;31.20;45.45
18918;BME280;9591;52.742;13.650;2023-06-26T10:54:00;100724.22;;;31.41;45.91
18918;BME280;9591;52.742;13.650;2023-06-26T10:56:48;100712.06;;;31.58;45.36
18918;BME280;9591;52.742;13.650;2023-06-26T10:59:39;100712.38;;;31.63;46.47
18918;BME280;9591;52.742;13.650;2023-06-26T11:02:26;100707.28;;;31.60;44.64
18918;BME280;9591;52.742;13.650;2023-06-26T11:05:23;100707.75;;;31.63;44.77
18918;BME280;9591;52.742;13.650;2023-06-26T11:08:10;100707.53;;;31.50;46.28
18918;BME280;9591;52.742;13.650;2023-06-26T11:11:01;100709.50;;;31.42;42.58
18918;BME280;9591;52.742;13.650;2023-06-26T11:13:48;100696.84;;;31.41;42.14
18918;BME280;9591;52.742;13.650;2023-06-26T11:16:36;100691.50;;;31.47;43.46
18918;BME280;9591;52.742;13.650;2023-06-26T11:19:25;100677.03;;;31.39;44.11
18918;BME280;9591;52.742;13.650;2023-06-26T11:22:13;100683.72;;;31.88;43.20
18918;BME280;9591;52.742;13.650;2023-06-26T11:25:02;100677.69;;;31.78;42.14
18918;BME280;9591;52.742;13.650;2023-06-26T11:27:49;100682.88;;;31.73;42.49
18918;BME280;9591;52.742;13.650;2023-06-26T11:30:35;100677.31;;;31.81;42.45
18918;BME280;9591;52.742;13.650;2023-06-26T11:33:26;100677.69;;;31.78;41.86
18918;BME280;9591;52.742;13.650;2023-06-26T11:36:13;100676.16;;;31.76;45.11
18918;BME280;9591;52.742;13.650;2023-06-26T11:39:01;100672.28;;;31.70;42.01
18918;BME280;9591;52.742;13.650;2023-06-26T11:41:48;100668.44;;;31.94;46.64
18918;BME280;9591;52.742;13.650;2023-06-26T11:44:40;100667.56;;;31.93;46.41
18918;BME280;9591;52.742;13.650;2023-06-26T11:47:27;100663.06;;;31.86;46.92
18918;BME280;9591;52.742;13.650;2023-06-26T11:50:16;100641.06;;;31.79;42.67
18918;BME280;9591;52.742;13.650;2023-06-26T11:53:02;100643.22;;;31.84;42.84
18918;BME280;9591;52.742;13.650;2023-06-26T11:55:50;100642.47;;;31.90;42.93
18918;BME280;9591;52.742;13.650;2023-06-26T11:58:55;100632.34;;;32.05;48.06
18918;BME280;9591;52.742;13.650;2023-06-26T12:01:43;100625.56;;;31.86;47.90
18918;BME280;9591;52.742;13.650;2023-06-26T12:04:31;100624.72;;;31.71;44.05
18918;BME280;9591;52.742;13.650;2023-06-26T12:07:20;100619.13;;;31.50;43.27
18918;BME280;9591;52.742;13.650;2023-06-26T12:10:09;100618.84;;;31.45;45.30
18918;BME280;9591;52.742;13.650;2023-06-26T12:12:57;100608.75;;;31.60;41.65
18918;BME280;9591;52.742;13.650;2023-06-26T12:15:45;100606.97;;;31.82;42.65
18918;BME280;9591;52.742;13.650;2023-06-26T12:18:34;100603.50;;;32.09;47.42
18918;BME280;9591;52.742;13.650;2023-06-26T12:21:28;100595.09;;;32.25;42.98
18918;BME280;9591;52.742;13.650;2023-06-26T12:24:19;100584.31;;;32.24;42.39
18918;BME280;9591;52.742;13.650;2023-06-26T12:27:08;100580.22;;;32.35;42.16
18918;BME280;9591;52.742;13.650;2023-06-26T12:29:55;100573.38;;;32.45;41.99
18918;BME280;9591;52.742;13.650;2023-06-26T12:32:44;100580.09;;;32.43;46.58
18918;BME280;9591;52.742;13.650;2023-06-26T12:35:33;100580.97;;;32.43;44.42
18918;BME280;9591;52.742;13.650;2023-06-26T12:38:19;100583.03;;;32.41;40.94
18918;BME280;9591;52.742;13.650;2023-06-26T12:41:13;100573.19;;;32.47;41.39
18918;BME280;9591;52.742;13.650;2023-06-26T12:44:00;100566.88;;;32.46;40.88
18918;BME280;9591;52.742;13.650;2023-06-26T12:46:48;100567.13;;;32.73;41.52
18918;BME280;9591;52.742;13.650;2023-06-26T12:49:35;100548.41;;;32.76;43.49
18918;BME280;9591;52.742;13.650;2023-06-26T12:52:22;100553.59;;;32.71;45.73
18918;BME280;9591;52.742;13.650;2023-06-26T12:55:09;100538.53;;;32.82;42.20
18918;BME280;9591;52.742;13.650;2023-06-26T12:57:57;100546.56;;;32.83;41.74
18918;BME280;9591;52.742;13.650;2023-06-26T13:00:44;100547.88;;;32.45;41.60
18918;BME280;9591;52.742;13.650;2023-06-26T13:03:31;100528.41;;;32.61;44.04
18918;BME280;9591;52.742;13.650;2023-06-26T13:06:20;100522.69;;;32.77;42.45
18918;BME280;9591;52.742;13.650;2023-06-26T13:09:07;100522.00;;;32.75;44.46
18918;BME280;9591;52.742;13.650;2023-06-26T13:11:54;100519.34;;;32.82;40.92
18918;BME280;9591;52.742;13.650;2023-06-26T13:14:42;100508.63;;;32.87;40.95
18918;BME280;9591;52.742;13.650;2023-06-26T13:17:29;100509.44;;;32.81;41.82
18918;BME280;9591;52.742;13.650;2023-06-26T13:20:16;100513.47;;;32.64;45.40
18918;BME280;9591;52.742;13.650;2023-06-26T13:23:03;100503.03;;;32.52;41.96
18918;BME280;9591;52.742;13.650;2023-06-26T13:25:51;100492.09;;;32.52;46.18
18918;BME280;9591;52.742;13.650;2023-06-26T13:28:38;100496.16;;;32.35;40.87
18918;BME280;9591;52.742;13.650;2023-06-26T13:31:27;100439.78;;;31.83;41.45
18918;BME280;9591;52.742;13.650;2023-06-26T13:34:20;100479.53;;;31.79;40.42
18918;BME280;9591;52.742;13.650;2023-06-26T13:37:08;100473.41;;;31.77;43.06
18918;BME280;9591;52.742;13.650;2023-06-26T13:39:55;100468.31;;;31.59;43.29
18918;BME280;9591;52.742;13.650;2023-06-26T13:42:44;100470.59;;;31.56;42.75
18918;BME280;9591;52.742;13.650;2023-06-26T13:45:31;100458.56;;;31.36;43.97
18918;BME280;9591;52.742;13.650;2023-06-26T13:48:19;100459.03;;;31.24;44.74
18918;BME280;9591;52.742;13.650;2023-06-26T13:51:06;100461.59;;;31.11;44.79
18918;BME280;9591;52.742;13.650;2023-06-26T13:53:53;100458.00;;;30.96;45.77
18918;BME280;9591;52.742;13.650;2023-06-26T13:56:40;100448.84;;;30.74;47.59
18918;BME280;9591;52.742;13.650;2023-06-26T13:59:27;100448.34;;;30.71;47.86
18918;BME280;9591;52.742;13.650;2023-06-26T14:02:13;100451.00;;;30.79;47.28
18918;BME280;9591;52.742;13.650;2023-06-26T14:05:02;100449.03;;;30.73;49.05
18918;BME280;9591;52.742;13.650;2023-06-26T14:07:49;100433.38;;;30.81;49.12
18918;BME280;9591;52.742;13.650;2023-06-26T14:10:36;100436.03;;;30.89;50.47
18918;BME280;9591;52.742;13.650;2023-06-26T14:13:23;100429.50;;;30.76;56.66
18918;BME280;9591;52.742;13.650;2023-06-26T14:16:10;100421.69;;;30.58;55.87
18918;BME280;9591;52.742;13.650;2023-06-26T14:18:58;100419.81;;;30.36;55.31
18918;BME280;9591;52.742;13.650;2023-06-26T14:21:48;100422.53;;;30.21;53.07
18918;BME280;9591;52.742;13.650;2023-06-26T14:24:35;100426.59;;;30.02;57.14
18918;BME280;9591;52.742;13.650;2023-06-26T14:27:22;100441.59;;;29.75;56.28
18918;BME280;9591;52.742;13.650;2023-06-26T14:30:09;100447.88;;;29.53;56.26
18918;BME280;9591;52.742;13.650;2023-06-26T14:32:56;100454.53;;;29.11;62.43